Time;durP1;ratioP1;P1;durP2;ratioP2;P2;SDS_P1;SDS_P2;PMS_P1;PMS_P2;Temp;Humidity;BMP_temperature;BMP_pressure;BME280_temperature;BME280_humidity;BME280_pressure;Samples;Min_cycle;Max_cycle;Signal;HPM_P1;HPM_P2
2022/07/13 00:00:44;;;;;;;3.35;2.10;;;;;;;-141.50;100.00;63355.56;5038319;28;20057;-80
2022/07/13 00:03:13;;;;;;;3.65;2.22;;;;;;;-141.50;100.00;63355.56;5051256;28;20477;-80
2022/07/13 00:05:40;;;;;;;3.17;1.98;;;;;;;-141.50;100.00;63355.56;5050368;28;20177;-80
2022/07/13 00:08:06;;;;;;;3.03;2.10;;;;;;;-141.50;100.00;63355.56;5052591;28;20135;-79
2022/07/13 00:10:33;;;;;;;4.40;2.25;;;;;;;-141.50;100.00;63355.56;5052085;28;20480;-79
2022/07/13 00:12:59;;;;;;;4.13;2.13;;;;;;;-141.50;100.00;63355.56;5051833;28;20088;-79
2022/07/13 00:15:26;;;;;;;5.28;2.03;;;;;;;-141.50;100.00;63355.56;5053387;28;20072;-81
2022/07/13 00:17:53;;;;;;;3.03;1.95;;;;;;;-141.50;100.00;63355.56;5034094;28;20475;-79
2022/07/13 00:20:23;;;;;;;4.38;1.95;;;;;;;-141.50;100.00;63355.56;5052847;28;20045;-80
2022/07/13 00:22:49;;;;;;;2.60;2.10;;;;;;;-141.50;100.00;63355.56;5054298;28;20049;-80
2022/07/13 00:25:17;;;;;;;2.55;1.95;;;;;;;-141.50;100.00;63355.56;5053423;28;20051;-81
2022/07/13 00:27:43;;;;;;;6.57;2.20;;;;;;;-141.50;100.00;63355.56;5054386;28;20064;-79
2022/07/13 00:30:10;;;;;;;2.78;2.05;;;;;;;-141.50;100.00;63355.56;5053157;28;20072;-81
2022/07/13 00:32:37;;;;;;;4.95;2.35;;;;;;;-141.50;100.00;63355.56;5053176;28;20079;-81
2022/07/13 00:35:05;;;;;;;3.92;1.90;;;;;;;-141.50;100.00;63355.56;5070567;28;20040;-80
2022/07/13 00:37:31;;;;;;;3.78;2.40;;;;;;;-141.50;100.00;63355.56;5059516;28;20064;-80
2022/07/13 00:39:58;;;;;;;2.58;2.03;;;;;;;-141.50;100.00;63355.56;5050524;28;20128;-80
2022/07/13 00:42:24;;;;;;;2.95;2.00;;;;;;;-141.50;100.00;63355.56;5052202;28;20294;-79
2022/07/13 00:44:51;;;;;;;3.05;2.13;;;;;;;-141.50;100.00;63355.56;5052197;28;20102;-79
2022/07/13 00:47:18;;;;;;;2.97;1.90;;;;;;;-141.50;100.00;63355.56;5050200;28;20048;-80
2022/07/13 00:49:44;;;;;;;3.85;2.10;;;;;;;-141.50;100.00;63355.56;5031237;28;20101;-81
2022/07/13 00:52:15;;;;;;;3.72;2.50;;;;;;;-141.50;100.00;63355.56;5032108;28;20056;-81
2022/07/13 00:54:43;;;;;;;3.20;2.00;;;;;;;-141.50;100.00;63355.56;5033339;28;20091;-80
2022/07/13 00:57:15;;;;;;;3.13;2.10;;;;;;;-141.50;100.00;63355.56;5033890;28;20132;-81
2022/07/13 00:59:45;;;;;;;4.30;2.10;;;;;;;-141.50;100.00;63355.56;5032289;28;20046;-81
2022/07/13 01:02:14;;;;;;;3.55;2.17;;;;;;;-141.50;100.00;63355.56;5032424;28;20084;-81
2022/07/13 01:04:40;;;;;;;4.35;2.20;;;;;;;-141.50;100.00;63355.56;5013410;28;20061;-80
2022/07/13 01:07:07;;;;;;;6.38;2.42;;;;;;;-141.50;100.00;63355.56;5032151;28;20049;-81
2022/07/13 01:09:35;;;;;;;3.80;2.20;;;;;;;-141.50;100.00;63355.56;5031057;28;20049;-81
2022/07/13 01:12:01;;;;;;;3.42;2.10;;;;;;;-141.50;100.00;63355.56;5033164;28;20054;-80
2022/07/13 01:14:29;;;;;;;5.93;2.33;;;;;;;-141.50;100.00;63355.56;5031486;28;20049;-80
2022/07/13 01:16:56;;;;;;;5.38;2.40;;;;;;;-141.50;100.00;63355.56;5033146;28;20069;-81
2022/07/13 01:19:23;;;;;;;3.50;2.10;;;;;;;-141.50;100.00;63355.56;5032692;28;20057;-80
2022/07/13 01:21:55;;;;;;;2.58;1.92;;;;;;;-141.50;100.00;63355.56;5031518;28;20171;-81
2022/07/13 01:24:24;;;;;;;5.20;2.17;;;;;;;-141.50;100.00;63355.56;5031202;28;20089;-80
2022/07/13 01:26:51;;;;;;;5.18;1.98;;;;;;;-141.50;100.00;63355.56;5033179;28;20049;-81
2022/07/13 01:29:18;;;;;;;3.72;2.00;;;;;;;-141.50;100.00;63355.56;5033714;28;20053;-81
2022/07/13 01:31:44;;;;;;;2.90;2.35;;;;;;;-141.50;100.00;63355.56;5032814;28;20053;-81
2022/07/13 01:34:11;;;;;;;5.88;2.03;;;;;;;-141.50;100.00;63355.56;5035335;28;20053;-81
2022/07/13 01:36:40;;;;;;;2.88;2.10;;;;;;;-141.50;100.00;63355.56;5018211;28;20069;-80
2022/07/13 01:39:12;;;;;;;3.22;2.13;;;;;;;-141.50;100.00;63355.56;5035270;28;20136;-81
2022/07/13 01:41:39;;;;;;;2.58;2.10;;;;;;;-141.50;100.00;63355.56;5039809;28;20050;-81
2022/07/13 01:44:08;;;;;;;4.38;2.25;;;;;;;-141.50;100.00;63355.56;5039174;28;20080;-81
2022/07/13 01:46:41;;;;;;;2.63;1.90;;;;;;;-141.50;100.00;63355.56;5035944;28;20048;-81
2022/07/13 01:49:10;;;;;;;3.30;2.25;;;;;;;-141.50;100.00;63355.56;5057832;28;20059;-79
2022/07/13 01:51:40;;;;;;;5.45;2.22;;;;;;;-141.50;100.00;63355.56;5061042;28;20429;-80
2022/07/13 01:54:06;;;;;;;3.63;2.15;;;;;;;-141.50;100.00;63355.56;5060204;28;20049;-80
2022/07/13 01:56:33;;;;;;;4.38;2.10;;;;;;;-141.50;100.00;63355.56;5059326;28;20511;-79
2022/07/13 01:59:00;;;;;;;4.32;1.90;;;;;;;-141.50;100.00;63355.56;5061513;28;20052;-80
2022/07/13 02:01:27;;;;;;;3.92;2.00;;;;;;;-141.50;100.00;63355.56;5063857;28;20057;-81
2022/07/13 02:03:54;;;;;;;6.70;2.10;;;;;;;-141.50;100.00;63355.56;5058441;28;20076;-79
2022/07/13 02:06:21;;;;;;;4.55;1.88;;;;;;;-141.50;100.00;63355.56;5056342;28;20085;-77
2022/07/13 02:08:50;;;;;;;3.40;2.25;;;;;;;-141.50;100.00;63355.56;5037481;28;20111;-81
2022/07/13 02:11:20;;;;;;;3.88;2.20;;;;;;;-141.50;100.00;63355.56;5056117;28;20068;-80
2022/07/13 02:13:47;;;;;;;3.08;2.03;;;;;;;-141.50;100.00;63355.56;5055601;28;20109;-79
2022/07/13 02:16:14;;;;;;;3.30;2.30;;;;;;;-141.50;100.00;63355.56;5056110;28;20081;-82
2022/07/13 02:18:42;;;;;;;4.43;2.00;;;;;;;-141.50;100.00;63355.56;5055639;28;20056;-81
2022/07/13 02:21:09;;;;;;;4.95;2.38;;;;;;;-141.50;100.00;63355.56;5056285;28;20073;-80
2022/07/13 02:23:35;;;;;;;4.18;2.30;;;;;;;-141.50;100.00;63355.56;5056296;28;20049;-80
2022/07/13 02:26:02;;;;;;;3.95;1.92;;;;;;;-141.50;100.00;63355.56;5057436;28;20650;-79
2022/07/13 02:28:28;;;;;;;5.93;2.60;;;;;;;-141.50;100.00;63355.56;5058667;28;20045;-80
2022/07/13 02:30:55;;;;;;;4.32;2.03;;;;;;;-141.50;100.00;63355.56;5064868;28;20057;-80
2022/07/13 02:33:22;;;;;;;3.42;2.10;;;;;;;-141.50;100.00;63355.56;5064645;28;20049;-80
2022/07/13 02:35:49;;;;;;;2.65;2.00;;;;;;;-141.50;100.00;63355.56;5039607;28;20060;-80
2022/07/13 02:38:16;;;;;;;4.93;2.15;;;;;;;-141.50;100.00;63355.56;5055372;28;20498;-80
2022/07/13 02:40:42;;;;;;;2.83;1.92;;;;;;;-141.50;100.00;63355.56;5058764;28;20049;-80
2022/07/13 02:43:09;;;;;;;4.53;2.03;;;;;;;-141.50;100.00;63355.56;5070574;28;20052;-79
2022/07/13 02:45:35;;;;;;;6.20;2.10;;;;;;;-141.50;100.00;63355.56;5065983;28;20068;-79
2022/07/13 02:48:02;;;;;;;10.20;2.10;;;;;;;-141.50;100.00;63355.56;5039386;28;20119;-81
2022/07/13 02:50:29;;;;;;;4.20;2.10;;;;;;;-141.50;100.00;63355.56;5054270;28;20141;-80
2022/07/13 02:52:55;;;;;;;3.33;2.10;;;;;;;-141.50;100.00;63355.56;5054014;28;20049;-81
2022/07/13 02:55:22;;;;;;;5.90;1.90;;;;;;;-141.50;100.00;63355.56;5033362;28;20498;-80
2022/07/13 02:57:49;;;;;;;4.57;1.90;;;;;;;-141.50;100.00;63355.56;5018322;28;20080;-80
2022/07/13 03:00:20;;;;;;;3.35;1.98;;;;;;;-141.50;100.00;63355.56;5035483;28;20080;-80
2022/07/13 03:02:47;;;;;;;3.03;2.00;;;;;;;-141.50;100.00;63355.56;5033637;28;20088;-81
2022/07/13 03:05:16;;;;;;;3.40;1.90;;;;;;;-141.50;100.00;63355.56;5034383;28;20050;-80
2022/07/13 03:07:45;;;;;;;4.15;2.35;;;;;;;-141.50;100.00;63355.56;5034466;28;20479;-82
2022/07/13 03:10:13;;;;;;;2.97;2.08;;;;;;;-141.50;100.00;63355.56;5015693;28;20081;-81
2022/07/13 03:12:40;;;;;;;2.78;2.05;;;;;;;-141.50;100.00;63355.56;5037719;28;20057;-81
2022/07/13 03:15:07;;;;;;;5.75;2.40;;;;;;;-141.50;100.00;63355.56;5035448;28;20053;-82
2022/07/13 03:17:35;;;;;;;4.85;2.22;;;;;;;-141.50;100.00;63355.56;5034492;28;20057;-81
2022/07/13 03:20:03;;;;;;;2.85;2.13;;;;;;;-141.50;100.00;63355.56;5033404;28;20445;-81
2022/07/13 03:22:32;;;;;;;5.47;2.20;;;;;;;-141.50;100.00;63355.56;5014718;28;20045;-80
2022/07/13 03:24:59;;;;;;;2.28;1.80;;;;;;;-141.50;100.00;63355.56;5033254;28;20053;-82
2022/07/13 03:27:28;;;;;;;5.10;2.28;;;;;;;-141.50;100.00;63355.56;5038381;28;20046;-81
2022/07/13 03:29:54;;;;;;;3.25;2.13;;;;;;;-141.50;100.00;63355.56;5044632;28;20081;-81
2022/07/13 03:32:21;;;;;;;6.45;2.28;;;;;;;-141.50;100.00;63355.56;5057724;28;20052;-80
2022/07/13 03:34:48;;;;;;;6.13;2.25;;;;;;;-141.50;100.00;63355.56;5059199;28;20072;-80
2022/07/13 03:37:14;;;;;;;6.95;2.00;;;;;;;-141.50;100.00;63355.56;5052842;28;20087;-80
2022/07/13 03:39:41;;;;;;;4.35;2.17;;;;;;;-141.50;100.00;63355.56;5034226;28;20057;-79
2022/07/13 03:42:07;;;;;;;10.15;2.30;;;;;;;-141.50;100.00;63355.56;5052913;28;20052;-77
2022/07/13 03:44:34;;;;;;;8.73;2.45;;;;;;;-141.50;100.00;63355.56;5052497;28;20135;-80
2022/07/13 03:47:01;;;;;;;4.43;2.33;;;;;;;-141.50;100.00;63355.56;5051676;28;20076;-81
2022/07/13 03:49:27;;;;;;;2.67;1.88;;;;;;;-141.50;100.00;63355.56;5031846;28;20445;-79
2022/07/13 03:51:54;;;;;;;3.35;2.20;;;;;;;-141.50;100.00;63355.56;5030964;28;20132;-77
2022/07/13 03:54:21;;;;;;;5.35;2.10;;;;;;;-141.50;100.00;63355.56;5031466;28;20085;-78
2022/07/13 03:56:48;;;;;;;3.50;2.10;;;;;;;-141.50;100.00;63355.56;5032776;28;20104;-78
2022/07/13 03:59:15;;;;;;;4.18;2.17;;;;;;;-141.50;100.00;63355.56;5033061;28;20053;-80
2022/07/13 04:01:42;;;;;;;5.53;2.40;;;;;;;-141.50;100.00;63355.56;5030230;28;20070;-80
2022/07/13 04:04:09;;;;;;;4.47;2.30;;;;;;;-141.50;100.00;63355.56;5032132;28;20514;-78
2022/07/13 04:06:36;;;;;;;4.22;2.00;;;;;;;-141.50;100.00;63355.56;5014278;28;20048;-79
2022/07/13 04:09:03;;;;;;;6.50;2.10;;;;;;;-141.50;100.00;63355.56;5030370;28;20061;-80
2022/07/13 04:11:30;;;;;;;6.55;2.70;;;;;;;-141.50;100.00;63355.56;5033040;28;20049;-80
2022/07/13 04:13:56;;;;;;;6.07;2.25;;;;;;;-141.50;100.00;63355.56;5032275;28;20051;-80
2022/07/13 04:16:23;;;;;;;4.80;2.33;;;;;;;-141.50;100.00;63355.56;5032284;28;20325;-80
2022/07/13 04:18:50;;;;;;;4.40;2.03;;;;;;;-141.50;100.00;63355.56;5030875;28;20444;-77
2022/07/13 04:21:16;;;;;;;3.78;1.92;;;;;;;-141.50;100.00;63355.56;5026388;28;20049;-78
2022/07/13 04:23:43;;;;;;;5.57;2.25;;;;;;;-141.50;100.00;63355.56;5027119;28;20150;-76
2022/07/13 04:26:09;;;;;;;5.78;2.20;;;;;;;-141.50;100.00;63355.56;5029018;28;20077;-78
2022/07/13 04:28:36;;;;;;;3.47;2.20;;;;;;;-141.50;100.00;63355.56;5028622;28;20140;-79
2022/07/13 04:31:02;;;;;;;4.55;2.17;;;;;;;-141.50;100.00;63355.56;5027823;28;20081;-78
2022/07/13 04:33:29;;;;;;;3.42;2.22;;;;;;;-141.50;100.00;63355.56;5028946;28;20195;-78
2022/07/13 04:35:55;;;;;;;8.77;1.98;;;;;;;-141.50;100.00;63355.56;5027253;28;20045;-78
2022/07/13 04:38:22;;;;;;;5.47;2.03;;;;;;;-141.50;100.00;63355.56;5030018;28;20085;-79
2022/07/13 04:40:48;;;;;;;5.40;2.30;;;;;;;-141.50;100.00;63355.56;5029503;28;20510;-78
2022/07/13 04:43:15;;;;;;;4.30;2.03;;;;;;;-141.50;100.00;63355.56;5029670;28;20444;-78
2022/07/13 04:45:42;;;;;;;5.90;2.20;;;;;;;-141.50;100.00;63355.56;5038415;28;20087;-77
2022/07/13 04:48:08;;;;;;;4.22;2.20;;;;;;;-141.50;100.00;63355.56;5013828;28;20060;-79
2022/07/13 04:50:35;;;;;;;4.00;2.45;;;;;;;-141.50;100.00;63355.56;5028543;28;20053;-78
2022/07/13 04:53:01;;;;;;;3.90;2.30;;;;;;;-141.50;100.00;63355.56;5032653;28;20119;-79
2022/07/13 04:55:28;;;;;;;6.63;2.50;;;;;;;-141.50;100.00;63355.56;5029331;28;20178;-81
2022/07/13 04:57:56;;;;;;;3.70;2.00;;;;;;;-141.50;100.00;63355.56;5031232;28;20113;-80
2022/07/13 05:00:23;;;;;;;5.97;1.90;;;;;;;-141.50;100.00;63355.56;5030609;28;20096;-78
2022/07/13 05:02:50;;;;;;;7.28;2.10;;;;;;;-141.50;100.00;63355.56;5030771;28;20053;-79
2022/07/13 05:05:17;;;;;;;3.40;1.77;;;;;;;-141.50;100.00;63355.56;5033599;28;20108;-83
2022/07/13 05:07:44;;;;;;;2.80;1.80;;;;;;;-141.50;100.00;63355.56;5035405;28;20136;-80
2022/07/13 05:10:10;;;;;;;2.92;1.67;;;;;;;-141.50;100.00;63355.56;5034656;28;20080;-82
2022/07/13 05:12:41;;;;;;;3.50;1.70;;;;;;;-141.50;100.00;63355.56;5034338;28;20231;-81
2022/07/13 05:15:10;;;;;;;6.53;1.95;;;;;;;-141.50;100.00;63355.56;5035045;28;20077;-83
2022/07/13 05:17:36;;;;;;;7.95;1.92;;;;;;;-141.50;100.00;63355.56;5034719;28;20045;-82
2022/07/13 05:20:04;;;;;;;10.48;5.60;;;;;;;-141.50;100.00;63355.56;5033068;28;20134;-83
2022/07/13 05:22:30;;;;;;;9.43;2.22;;;;;;;-141.50;100.00;63355.56;5032842;28;20061;-82
2022/07/13 05:24:57;;;;;;;3.95;2.00;;;;;;;-141.50;100.00;63355.56;5033817;28;20065;-83
2022/07/13 05:27:24;;;;;;;7.47;1.98;;;;;;;-141.50;100.00;63355.56;5038107;28;20049;-83
2022/07/13 05:29:50;;;;;;;5.00;2.35;;;;;;;-141.50;100.00;63355.56;5038111;28;20183;-82
2022/07/13 05:32:17;;;;;;;6.97;1.90;;;;;;;-141.50;100.00;63355.56;5038220;28;20114;-83
2022/07/13 05:34:44;;;;;;;15.05;1.85;;;;;;;-141.50;100.00;63355.56;5020314;28;20049;-82
2022/07/13 05:37:10;;;;;;;8.15;1.90;;;;;;;-141.50;100.00;63355.56;5038497;28;20065;-82
2022/07/13 05:39:37;;;;;;;24.27;2.25;;;;;;;-141.50;100.00;63355.56;5038588;28;20111;-83
2022/07/13 05:42:04;;;;;;;9.88;1.90;;;;;;;-141.50;100.00;63355.56;5020878;28;20486;-82
2022/07/13 05:44:30;;;;;;;14.98;1.60;;;;;;;-141.50;100.00;63355.56;5022724;28;20522;-83
2022/07/13 05:46:58;;;;;;;9.88;2.88;;;;;;;-141.50;100.00;63355.56;5039895;28;20494;-84
2022/07/13 05:49:25;;;;;;;11.10;2.38;;;;;;;-141.50;100.00;63355.56;5059076;28;20057;-83
2022/07/13 05:51:52;;;;;;;7.82;2.53;;;;;;;-141.50;100.00;63355.56;5059480;28;20045;-83
2022/07/13 05:54:18;;;;;;;5.20;2.13;;;;;;;-141.50;100.00;63355.56;5058917;28;20049;-82
2022/07/13 05:57:05;;;;;;;6.10;1.70;;;;;;;-141.50;100.00;63355.56;5065330;28;20048;-82
2022/07/13 05:59:33;;;;;;;5.07;1.70;;;;;;;-141.50;100.00;63355.56;5071487;28;20053;-82
2022/07/13 06:02:00;;;;;;;6.30;1.55;;;;;;;-141.50;100.00;63355.56;5069425;28;20121;-82
2022/07/13 06:04:27;;;;;;;6.72;1.55;;;;;;;-141.50;100.00;63355.56;5057741;28;20057;-81
2022/07/13 06:06:53;;;;;;;3.67;1.60;;;;;;;-141.50;100.00;63355.56;5057044;28;20076;-82
2022/07/13 06:09:20;;;;;;;9.35;1.80;;;;;;;-141.50;100.00;63355.56;5056112;28;20498;-82
2022/07/13 06:11:46;;;;;;;2.92;1.80;;;;;;;-141.50;100.00;63355.56;5059662;28;20049;-81
2022/07/13 06:14:13;;;;;;;2.55;1.45;;;;;;;-141.50;100.00;63355.56;5057020;28;20053;-81
2022/07/13 06:16:40;;;;;;;3.22;1.20;;;;;;;-141.50;100.00;63355.56;5057038;28;20070;-81
2022/07/13 06:19:07;;;;;;;4.72;1.10;;;;;;;-141.50;100.00;63355.56;5055413;28;20076;-81
2022/07/13 06:21:33;;;;;;;2.05;0.73;;;;;;;-141.50;100.00;63355.56;5034020;28;20053;-81
2022/07/13 06:24:00;;;;;;;9.10;1.20;;;;;;;-141.50;100.00;63355.56;5053646;28;20084;-81
2022/07/13 06:26:26;;;;;;;2.75;0.90;;;;;;;-141.50;100.00;63355.56;5056563;28;20130;-82
2022/07/13 06:28:53;;;;;;;3.92;0.90;;;;;;;-141.50;100.00;63355.56;5056736;28;20081;-81
2022/07/13 06:31:22;;;;;;;1.50;0.85;;;;;;;-141.50;100.00;63355.56;5054838;28;20347;-82
2022/07/13 06:33:51;;;;;;;3.80;0.90;;;;;;;-141.50;100.00;63355.56;5054865;28;20061;-82
2022/07/13 06:36:18;;;;;;;5.25;0.80;;;;;;;-141.50;100.00;63355.56;5054031;28;20069;-81
2022/07/13 06:38:45;;;;;;;3.08;1.13;;;;;;;-141.50;100.00;63355.56;5053468;28;20511;-82
2022/07/13 06:41:12;;;;;;;2.85;0.90;;;;;;;-141.50;100.00;63355.56;5053434;28;20112;-81
2022/07/13 06:43:38;;;;;;;3.78;0.65;;;;;;;-141.50;100.00;63355.56;5054629;28;20084;-82
2022/07/13 06:46:05;;;;;;;3.40;0.95;;;;;;;-141.50;100.00;63355.56;5055684;28;20052;-83
2022/07/13 06:48:32;;;;;;;2.22;0.90;;;;;;;-141.50;100.00;63355.56;5055396;28;20052;-82
2022/07/13 06:51:00;;;;;;;1.02;0.80;;;;;;;-141.50;100.00;63355.56;5054907;28;20044;-82
2022/07/13 06:53:27;;;;;;;4.10;0.90;;;;;;;-141.50;100.00;63355.56;5055357;28;20469;-82
2022/07/13 06:55:54;;;;;;;6.50;0.95;;;;;;;-141.50;100.00;63355.56;5037259;28;20053;-82
2022/07/13 06:58:21;;;;;;;6.07;1.17;;;;;;;-141.50;100.00;63355.56;5056359;28;20045;-81
2022/07/13 07:00:48;;;;;;;2.50;0.90;;;;;;;-141.50;100.00;63355.56;5060541;28;20048;-81
2022/07/13 07:03:15;;;;;;;3.50;1.20;;;;;;;-141.50;100.00;63355.56;5070381;28;20049;-82
2022/07/13 07:05:41;;;;;;;2.30;0.90;;;;;;;-141.50;100.00;63355.56;5054145;28;20548;-83
2022/07/13 07:08:08;;;;;;;3.47;1.05;;;;;;;-141.50;100.00;63355.56;5054762;28;20548;-82
2022/07/13 07:10:34;;;;;;;5.43;0.88;;;;;;;-141.50;100.00;63355.56;5053894;28;20072;-81
2022/07/13 07:13:05;;;;;;;1.42;0.70;;;;;;;-141.50;100.00;63355.56;5054311;28;20045;-82
2022/07/13 07:15:32;;;;;;;2.63;0.70;;;;;;;-141.50;100.00;63355.56;5057926;28;20086;-83
2022/07/13 07:17:59;;;;;;;5.00;0.88;;;;;;;-141.50;100.00;63355.56;5060014;28;20045;-82
2022/07/13 07:20:33;;;;;;;1.60;1.05;;;;;;;-141.50;100.00;63355.56;5056290;28;20053;-83
2022/07/13 07:23:00;;;;;;;5.63;0.90;;;;;;;-141.50;100.00;63355.56;5055525;28;20159;-82
2022/07/13 07:25:26;;;;;;;3.47;0.90;;;;;;;-141.50;100.00;63355.56;5057219;28;20083;-83
2022/07/13 07:27:53;;;;;;;7.20;0.90;;;;;;;-141.50;100.00;63355.56;5061325;28;20104;-80
2022/07/13 07:30:19;;;;;;;9.15;1.00;;;;;;;-141.50;100.00;63355.56;5059898;28;20076;-80
2022/07/13 07:32:46;;;;;;;1.90;0.90;;;;;;;-141.50;100.00;63355.56;5042816;28;20060;-80
2022/07/13 07:35:13;;;;;;;1.10;0.80;;;;;;;-141.50;100.00;63355.56;5059755;28;20079;-82
2022/07/13 07:37:39;;;;;;;3.03;0.95;;;;;;;-141.50;100.00;63355.56;5057879;28;20109;-82
2022/07/13 07:40:08;;;;;;;1.17;0.77;;;;;;;-141.50;100.00;63355.56;5052874;28;20143;-82
2022/07/13 07:42:35;;;;;;;4.43;1.05;;;;;;;-141.50;100.00;63355.56;5054303;28;20076;-83
2022/07/13 07:45:03;;;;;;;2.03;0.90;;;;;;;-141.50;100.00;63355.56;5062143;28;20528;-82
2022/07/13 07:47:29;;;;;;;2.28;0.95;;;;;;;-141.50;100.00;63355.56;5055281;28;20067;-81
2022/07/13 07:49:56;;;;;;;7.38;1.02;;;;;;;-141.50;100.00;63355.56;5062943;28;20064;-80
2022/07/13 07:52:23;;;;;;;2.65;0.70;;;;;;;-141.50;100.00;63355.56;5045472;28;20068;-80
2022/07/13 07:55:12;;;;;;;2.35;0.90;;;;;;;-141.50;100.00;63355.56;5062582;28;20072;-79
2022/07/13 07:57:46;;;;;;;3.78;1.00;;;;;;;-141.50;100.00;63355.56;5065181;28;20060;-80
2022/07/13 08:00:14;;;;;;;2.30;0.85;;;;;;;-141.50;100.00;63355.56;5045050;28;20053;-80
2022/07/13 08:02:41;;;;;;;4.63;0.95;;;;;;;-141.50;100.00;63355.56;5063571;28;20280;-80
2022/07/13 08:05:08;;;;;;;1.88;0.90;;;;;;;-141.50;100.00;63355.56;5062387;28;20080;-80
2022/07/13 08:07:42;;;;;;;2.75;0.70;;;;;;;-141.50;100.00;63355.56;5058189;28;20076;-81
2022/07/13 08:10:11;;;;;;;5.78;0.90;;;;;;;-141.50;100.00;63355.56;5051970;28;20493;-80
2022/07/13 08:12:53;;;;;;;6.85;1.00;;;;;;;-141.50;100.00;63355.56;5036973;28;20136;-82
2022/07/13 08:15:21;;;;;;;3.63;0.77;;;;;;;-141.50;100.00;63355.56;5052555;28;20045;-81
2022/07/13 08:17:48;;;;;;;4.13;0.85;;;;;;;-141.50;100.00;63355.56;5052100;28;20497;-80
2022/07/13 08:20:15;;;;;;;1.73;0.75;;;;;;;-141.50;100.00;63355.56;5032586;28;20109;-81
2022/07/13 08:22:47;;;;;;;5.45;0.75;;;;;;;-141.50;100.00;63355.56;5052374;28;20106;-81
2022/07/13 08:25:15;;;;;;;1.70;0.77;;;;;;;-141.50;100.00;63355.56;5051682;28;20080;-80
2022/07/13 08:27:42;;;;;;;4.25;1.00;;;;;;;-141.50;100.00;63355.56;5035275;28;20425;-81
2022/07/13 08:30:10;;;;;;;1.88;0.80;;;;;;;-141.50;100.00;63355.56;5052391;28;20048;-80
2022/07/13 08:32:38;;;;;;;1.60;0.90;;;;;;;-141.50;100.00;63355.56;5053314;28;20053;-80
2022/07/13 08:40:39;;;;;;;2.75;0.75;;;;;;;-141.50;100.00;63355.56;5051738;28;20060;-83
2022/07/13 08:43:06;;;;;;;2.58;1.05;;;;;;;-141.50;100.00;63355.56;5051146;28;20128;-82
2022/07/13 08:45:33;;;;;;;4.90;0.80;;;;;;;-141.50;100.00;63355.56;5052503;28;20045;-81
2022/07/13 08:48:00;;;;;;;2.05;0.90;;;;;;;-141.50;100.00;63355.56;5043788;28;20410;-83
2022/07/13 08:50:27;;;;;;;2.90;0.90;;;;;;;-141.50;100.00;63355.56;5050795;28;20084;-82
2022/07/13 08:52:54;;;;;;;3.30;0.90;;;;;;;-141.50;100.00;63355.56;5050655;28;20045;-81
2022/07/13 08:55:21;;;;;;;1.15;0.77;;;;;;;-141.50;100.00;63355.56;5050935;28;20053;-82
2022/07/13 08:57:48;;;;;;;2.03;0.90;;;;;;;-141.50;100.00;63355.56;5051201;28;20069;-82
2022/07/13 09:00:15;;;;;;;2.20;0.90;;;;;;;-141.50;100.00;63355.56;5050865;28;20077;-80
2022/07/13 09:02:41;;;;;;;1.05;0.77;;;;;;;-141.50;100.00;63355.56;5051477;28;20084;-82
2022/07/13 09:05:08;;;;;;;2.60;0.73;;;;;;;-141.50;100.00;63355.56;5051047;28;20051;-82
2022/07/13 09:07:35;;;;;;;3.70;0.73;;;;;;;-141.50;100.00;63355.56;5057513;28;20052;-81
2022/07/13 09:10:04;;;;;;;5.03;0.80;;;;;;;-141.50;100.00;63355.56;5061130;28;20174;-83
2022/07/13 09:12:34;;;;;;;1.60;0.90;;;;;;;-141.50;100.00;63355.56;5058176;28;20636;-82
2022/07/13 09:15:06;;;;;;;2.85;1.00;;;;;;;-141.50;100.00;63355.56;5054013;28;20115;-81
2022/07/13 09:17:43;;;;;;;3.55;0.80;;;;;;;-141.50;100.00;63355.56;5057033;28;20049;-83
2022/07/13 09:20:10;;;;;;;2.42;1.00;;;;;;;-141.50;100.00;63355.56;5049267;28;20188;-81
2022/07/13 09:22:52;;;;;;;3.70;0.85;;;;;;;-141.50;100.00;63355.56;5047771;28;20169;-81
2022/07/13 09:25:39;;;;;;;5.90;1.00;;;;;;;-141.50;100.00;63355.56;5050291;28;20068;-80
2022/07/13 09:28:12;;;;;;;3.85;0.80;;;;;;;-141.50;100.00;63355.56;5048422;28;20501;-81
2022/07/13 09:30:44;;;;;;;2.05;0.88;;;;;;;-141.50;100.00;63355.56;5062141;28;20055;-82
2022/07/13 09:33:12;;;;;;;3.03;0.80;;;;;;;-141.50;100.00;63355.56;5068335;28;20059;-81
2022/07/13 09:35:44;;;;;;;3.47;0.80;;;;;;;-141.50;100.00;63355.56;5065640;28;20103;-80
2022/07/13 09:38:27;;;;;;;4.30;0.80;;;;;;;-141.50;100.00;63355.56;5049655;28;20045;-82
2022/07/13 09:40:54;;;;;;;7.22;0.90;;;;;;;-141.50;100.00;63355.56;5051009;28;20045;-81
2022/07/13 09:46:09;;;;;;;4.78;0.82;;;;;;;-141.50;100.00;63355.56;5051738;28;20112;-80
2022/07/13 09:48:37;;;;;;;1.65;0.90;;;;;;;-141.50;100.00;63355.56;5039903;28;20049;-82
2022/07/13 09:51:05;;;;;;;2.33;0.90;;;;;;;-141.50;100.00;63355.56;5034741;28;20060;-81
2022/07/13 09:53:33;;;;;;;4.82;0.90;;;;;;;-141.50;100.00;63355.56;5032281;28;20117;-80
2022/07/13 09:56:02;;;;;;;2.08;0.70;;;;;;;-141.50;100.00;63355.56;5031461;28;20064;-80
2022/07/13 09:58:37;;;;;;;4.68;0.80;;;;;;;-141.50;100.00;63355.56;5029632;28;20084;-80
2022/07/13 10:01:04;;;;;;;4.30;0.80;;;;;;;-141.50;100.00;63355.56;5031622;28;20045;-80
2022/07/13 10:03:31;;;;;;;1.20;0.70;;;;;;;-141.50;100.00;63355.56;5030907;28;20223;-81
2022/07/13 10:06:01;;;;;;;1.85;0.80;;;;;;;-141.50;100.00;63355.56;5013130;28;20498;-82
2022/07/13 10:08:28;;;;;;;4.25;0.80;;;;;;;-141.50;100.00;63355.56;5029545;28;20068;-80
2022/07/13 10:10:54;;;;;;;0.98;0.80;;;;;;;-141.50;100.00;63355.56;5030712;28;20042;-80
2022/07/13 10:13:21;;;;;;;2.20;0.80;;;;;;;-141.50;100.00;63355.56;5034150;28;20080;-81
2022/07/13 10:15:48;;;;;;;3.85;0.85;;;;;;;-141.50;100.00;63355.56;5036766;28;20049;-82
2022/07/13 10:18:30;;;;;;;1.58;1.00;;;;;;;-141.50;100.00;63355.56;5036702;28;20129;-79
2022/07/13 10:21:10;;;;;;;3.67;0.95;;;;;;;-141.50;100.00;63355.56;5033878;28;20136;-81
2022/07/13 10:23:38;;;;;;;2.95;0.80;;;;;;;-141.50;100.00;63355.56;5018347;28;20095;-79
2022/07/13 10:26:24;;;;;;;3.97;0.82;;;;;;;-141.50;100.00;63355.56;5018359;28;20137;-82
2022/07/13 10:29:02;;;;;;;4.68;0.90;;;;;;;-141.50;100.00;63355.56;5018854;28;20426;-83
2022/07/13 10:31:29;;;;;;;1.30;0.75;;;;;;;-141.50;100.00;63355.56;5034698;28;20045;-82
2022/07/13 10:33:56;;;;;;;4.00;0.90;;;;;;;-141.50;100.00;63355.56;5035563;28;20050;-80
2022/07/13 10:36:47;;;;;;;7.40;0.80;;;;;;;-141.50;100.00;63355.56;5034437;28;20240;-82
2022/07/13 10:39:14;;;;;;;7.38;0.70;;;;;;;-141.50;100.00;63355.56;5033769;28;20075;-81
2022/07/13 10:42:03;;;;;;;2.90;0.70;;;;;;;-141.50;100.00;63355.56;5034632;28;20096;-80
2022/07/13 10:44:36;;;;;;;0.82;0.65;;;;;;;-141.50;100.00;63355.56;5034128;28;20045;-80
2022/07/13 10:47:06;;;;;;;3.60;0.82;;;;;;;-141.50;100.00;63355.56;5051699;28;20144;-83
2022/07/13 10:49:32;;;;;;;6.43;0.70;;;;;;;-141.50;100.00;63355.56;5033643;28;20060;-81
2022/07/13 10:52:21;;;;;;;2.90;0.50;;;;;;;-141.50;100.00;63355.56;5033468;28;20095;-80
2022/07/13 10:55:11;;;;;;;2.78;0.75;;;;;;;-141.50;100.00;63355.56;5033915;28;20056;-81
2022/07/13 10:57:42;;;;;;;0.65;0.52;;;;;;;-141.50;100.00;63355.56;5033854;28;20056;-81
2022/07/13 11:00:19;;;;;;;0.63;0.50;;;;;;;-141.50;100.00;63355.56;5001302;28;20078;-84
2022/07/13 11:02:50;;;;;;;1.50;0.60;;;;;;;-141.50;100.00;63355.56;5034627;28;20083;-78
2022/07/13 11:05:26;;;;;;;0.65;0.45;;;;;;;-141.50;100.00;63355.56;5035492;28;20096;-81
2022/07/13 11:07:53;;;;;;;4.03;0.70;;;;;;;-141.50;100.00;63355.56;5034978;28;20041;-83
2022/07/13 11:10:28;;;;;;;0.73;0.40;;;;;;;-141.50;100.00;63355.56;5034082;28;20072;-82
2022/07/13 11:13:05;;;;;;;2.75;0.60;;;;;;;-141.50;100.00;63355.56;5037854;28;20053;-80
2022/07/13 11:15:51;;;;;;;0.60;0.50;;;;;;;-141.50;100.00;63355.56;5044408;28;20045;-81
2022/07/13 11:18:29;;;;;;;3.85;0.65;;;;;;;-141.50;100.00;63355.56;5034315;28;20042;-80
2022/07/13 11:21:23;;;;;;;2.38;0.50;;;;;;;-141.50;100.00;63355.56;5013994;28;20077;-82
2022/07/13 11:26:46;;;;;;;2.60;0.57;;;;;;;-141.50;100.00;63355.56;5034429;28;20057;-81